createdAt,value
2023-03-31T00:02:17.354Z,99.00
2023-03-31T00:04:53.311Z,99.90
2023-03-31T00:07:24.862Z,99.90
2023-03-31T00:10:10.364Z,99.90
2023-03-31T00:12:50.415Z,99.90
2023-03-31T00:15:20.640Z,99.90
2023-03-31T00:17:51.005Z,99.90
2023-03-31T00:20:21.272Z,99.90
2023-03-31T00:22:51.554Z,99.90
2023-03-31T00:25:24.164Z,99.90
2023-03-31T00:27:55.148Z,99.90
2023-03-31T00:30:25.672Z,99.90
2023-03-31T00:32:56.230Z,99.90
2023-03-31T00:35:26.900Z,99.90
2023-03-31T00:37:58.836Z,99.90
2023-03-31T00:40:33.202Z,99.90
2023-03-31T00:43:04.136Z,99.90
2023-03-31T00:45:35.431Z,99.90
2023-03-31T00:48:10.923Z,99.90
2023-03-31T00:50:49.626Z,99.90
2023-03-31T00:53:22.463Z,99.90
2023-03-31T00:55:56.783Z,99.90
2023-03-31T00:58:29.750Z,99.90
2023-03-31T01:01:01.874Z,99.90
2023-03-31T01:03:33.996Z,99.90
2023-03-31T01:06:07.341Z,99.90
2023-03-31T01:08:38.672Z,99.90
2023-03-31T01:11:14.288Z,99.90
2023-03-31T01:13:46.644Z,99.90
2023-03-31T01:16:17.068Z,99.90
2023-03-31T01:18:50.322Z,99.90
2023-03-31T01:21:57.751Z,99.90
2023-03-31T01:24:42.379Z,99.90
2023-03-31T01:27:36.626Z,99.90
2023-03-31T01:30:29.484Z,99.90
2023-03-31T01:33:33.654Z,99.90
2023-03-31T01:36:35.972Z,99.90
2023-03-31T01:39:32.844Z,99.90
2023-03-31T01:42:10.333Z,99.90
2023-03-31T01:44:47.742Z,99.90
2023-03-31T01:47:23.919Z,99.90
2023-03-31T01:50:02.914Z,99.90
2023-03-31T01:52:41.904Z,99.90
2023-03-31T01:55:18.660Z,99.90
2023-03-31T01:57:56.394Z,99.90
2023-03-31T02:00:34.010Z,99.90
2023-03-31T02:03:11.318Z,99.90
2023-03-31T02:05:45.833Z,99.90
2023-03-31T02:08:19.433Z,99.90
2023-03-31T02:10:50.972Z,99.90
2023-03-31T02:13:25.677Z,99.90
2023-03-31T02:15:58.890Z,99.90
2023-03-31T02:18:31.422Z,99.90
2023-03-31T02:21:04.093Z,99.90
2023-03-31T02:23:35.412Z,99.90
2023-03-31T02:26:10.307Z,99.90
2023-03-31T02:28:42.776Z,99.90
2023-03-31T02:31:27.706Z,99.90
2023-03-31T02:33:58.439Z,99.90
2023-03-31T02:36:29.157Z,99.90
2023-03-31T02:39:04.779Z,99.90
2023-03-31T02:41:35.279Z,99.90
2023-03-31T02:44:07.636Z,99.90
2023-03-31T02:46:38.831Z,99.90
2023-03-31T02:49:11.866Z,99.90
2023-03-31T02:51:58.696Z,99.90
2023-03-31T02:54:53.490Z,99.90
2023-03-31T02:57:49.861Z,99.90
2023-03-31T03:00:29.752Z,99.90
2023-03-31T03:03:16.408Z,99.90
2023-03-31T03:05:55.448Z,99.90
2023-03-31T03:08:37.235Z,99.90
2023-03-31T03:11:18.667Z,99.90
2023-03-31T03:13:53.323Z,99.90
2023-03-31T03:16:27.845Z,99.90
2023-03-31T03:19:02.033Z,99.90
2023-03-31T03:21:32.578Z,99.90
2023-03-31T03:24:02.850Z,99.90
2023-03-31T03:26:36.023Z,99.90
2023-03-31T03:29:06.466Z,99.90
2023-03-31T03:31:38.562Z,99.90
2023-03-31T03:34:10.311Z,99.90
2023-03-31T03:36:40.899Z,99.90
2023-03-31T03:39:12.251Z,99.90
2023-03-31T03:41:42.785Z,99.90
2023-03-31T03:44:13.039Z,99.90
2023-03-31T03:46:44.858Z,99.90
2023-03-31T03:49:15.397Z,99.90
2023-03-31T03:51:45.958Z,99.90
2023-03-31T03:54:16.295Z,99.90
2023-03-31T03:56:46.493Z,99.90
2023-03-31T03:59:16.927Z,99.90
2023-03-31T04:01:48.883Z,99.90
2023-03-31T04:04:19.166Z,99.90
2023-03-31T04:06:49.308Z,99.90
2023-03-31T04:09:38.159Z,99.90
2023-03-31T04:12:08.667Z,99.90
2023-03-31T04:14:38.886Z,99.90
2023-03-31T04:17:11.258Z,99.90
2023-03-31T04:19:42.940Z,99.90
2023-03-31T04:22:15.986Z,99.90
2023-03-31T04:24:47.480Z,99.90
2023-03-31T04:27:18.285Z,99.90
2023-03-31T04:29:55.368Z,99.90
2023-03-31T04:32:28.979Z,99.90
2023-03-31T04:35:04.580Z,99.90
2023-03-31T04:37:35.697Z,99.90
2023-03-31T04:40:10.561Z,99.90
2023-03-31T04:42:41.083Z,99.90
2023-03-31T04:45:12.495Z,99.90
2023-03-31T04:47:44.916Z,99.90
2023-03-31T04:50:16.884Z,99.90
2023-03-31T04:52:47.497Z,99.90
2023-03-31T04:55:17.973Z,99.90
2023-03-31T04:57:48.799Z,99.90
2023-03-31T05:00:19.941Z,99.90
2023-03-31T05:02:52.221Z,99.90
2023-03-31T05:05:22.735Z,99.90
2023-03-31T05:07:52.918Z,99.90
2023-03-31T05:10:23.598Z,99.90
2023-03-31T05:12:54.082Z,99.90
2023-03-31T05:15:25.282Z,99.90
2023-03-31T05:17:57.090Z,99.90
2023-03-31T05:20:27.350Z,99.90
2023-03-31T05:22:57.832Z,99.90
2023-03-31T05:25:33.211Z,99.90
2023-03-31T05:28:03.778Z,99.90
2023-03-31T05:30:34.217Z,99.90
2023-03-31T05:33:06.397Z,99.90
2023-03-31T05:35:36.726Z,99.90
2023-03-31T05:38:08.308Z,99.90
2023-03-31T05:40:38.479Z,99.90
2023-03-31T05:43:08.695Z,99.90
2023-03-31T05:45:38.878Z,99.90
2023-03-31T05:48:10.949Z,99.90
2023-03-31T05:50:43.550Z,99.90
2023-03-31T05:53:13.773Z,99.90
2023-03-31T05:55:44.125Z,99.90
2023-03-31T05:58:14.262Z,99.90
2023-03-31T06:00:45.404Z,99.90
2023-03-31T06:03:17.447Z,99.90
2023-03-31T06:05:50.672Z,99.90
2023-03-31T06:08:20.952Z,99.90
2023-03-31T06:10:51.183Z,99.90
2023-03-31T06:13:21.398Z,99.90
2023-03-31T06:15:57.277Z,99.90
2023-03-31T06:18:30.822Z,99.90
2023-03-31T06:21:01.286Z,99.90
2023-03-31T06:23:31.691Z,99.90
2023-03-31T06:26:04.811Z,99.90
2023-03-31T06:28:35.110Z,99.90
2023-03-31T06:31:06.284Z,99.90
2023-03-31T06:33:38.630Z,99.90
2023-03-31T06:36:09.414Z,99.90
2023-03-31T06:38:40.463Z,99.90
2023-03-31T06:41:13.658Z,99.90
2023-03-31T06:43:44.027Z,99.90
2023-03-31T06:46:14.565Z,99.90
2023-03-31T06:48:46.369Z,99.90
2023-03-31T06:51:17.371Z,99.90
2023-03-31T06:53:47.590Z,99.90
2023-03-31T06:56:18.165Z,99.90
2023-03-31T06:58:48.350Z,99.90
2023-03-31T07:01:18.593Z,99.90
2023-03-31T07:03:50.887Z,99.90
2023-03-31T07:06:21.243Z,99.90
2023-03-31T07:08:51.491Z,99.90
2023-03-31T07:11:21.966Z,99.90
2023-03-31T07:13:52.465Z,99.90
2023-03-31T07:16:23.073Z,99.90
2023-03-31T07:19:00.130Z,99.90
2023-03-31T07:21:30.404Z,99.90
2023-03-31T07:24:01.059Z,99.90
2023-03-31T07:26:31.204Z,99.90
2023-03-31T07:29:01.663Z,99.90
2023-03-31T07:31:32.161Z,99.90
2023-03-31T07:34:04.340Z,99.90
2023-03-31T07:36:34.700Z,99.90
2023-03-31T07:39:05.455Z,99.90
2023-03-31T07:41:35.897Z,99.90
2023-03-31T07:44:06.192Z,99.90
2023-03-31T07:46:36.553Z,99.90
2023-03-31T07:49:10.208Z,99.90
2023-03-31T07:51:40.898Z,99.90
2023-03-31T07:54:11.112Z,99.90
2023-03-31T07:56:41.303Z,99.90
2023-03-31T07:59:11.529Z,99.90
2023-03-31T08:01:41.780Z,99.90
2023-03-31T08:04:15.199Z,99.90
2023-03-31T08:06:45.476Z,99.90
2023-03-31T08:09:15.707Z,99.90
2023-03-31T08:11:46.883Z,99.90
2023-03-31T08:14:27.212Z,99.90
2023-03-31T08:17:04.740Z,99.90
2023-03-31T08:19:38.017Z,99.90
2023-03-31T08:22:08.654Z,99.90
2023-03-31T08:24:38.924Z,99.90
2023-03-31T08:27:11.879Z,99.90
2023-03-31T08:29:42.692Z,99.90
2023-03-31T08:32:12.969Z,99.90
2023-03-31T08:34:45.911Z,99.90
2023-03-31T08:37:16.489Z,99.90
2023-03-31T08:39:46.686Z,99.90
2023-03-31T08:42:23.865Z,99.90
2023-03-31T08:45:00.647Z,99.90
2023-03-31T08:47:34.806Z,99.90
2023-03-31T08:50:15.565Z,99.90
2023-03-31T08:52:51.327Z,99.90
2023-03-31T08:55:26.397Z,99.90
2023-03-31T08:58:04.009Z,99.90
2023-03-31T09:00:42.726Z,99.90
2023-03-31T09:03:21.831Z,99.90
2023-03-31T09:06:01.200Z,99.90
2023-03-31T09:08:40.024Z,99.90
2023-03-31T09:11:23.688Z,99.90
2023-03-31T09:14:32.608Z,99.90
2023-03-31T09:17:16.088Z,99.90
2023-03-31T09:19:51.147Z,99.90
2023-03-31T09:22:26.905Z,99.90
2023-03-31T09:25:02.306Z,99.90
2023-03-31T09:27:37.832Z,99.90
2023-03-31T09:30:16.288Z,99.90
2023-03-31T09:32:49.084Z,99.90
2023-03-31T09:35:22.448Z,99.90
2023-03-31T09:37:55.046Z,99.90
2023-03-31T09:40:27.165Z,99.90
2023-03-31T09:43:01.924Z,99.90
2023-03-31T09:45:34.624Z,99.90
2023-03-31T09:48:07.574Z,99.90
2023-03-31T09:50:45.590Z,99.90
2023-03-31T09:53:21.555Z,99.90
2023-03-31T09:55:57.989Z,99.90
2023-03-31T09:58:28.095Z,99.90
2023-03-31T10:01:03.879Z,99.90
2023-03-31T10:03:37.323Z,99.90
2023-03-31T10:06:13.502Z,99.90
2023-03-31T10:08:50.064Z,99.90
2023-03-31T10:11:20.940Z,99.90
2023-03-31T10:13:59.312Z,99.90
2023-03-31T10:16:33.711Z,99.90
2023-03-31T10:19:21.988Z,99.90
2023-03-31T10:21:59.623Z,99.90
2023-03-31T10:24:40.660Z,99.90
2023-03-31T10:27:23.440Z,99.90
2023-03-31T10:29:55.945Z,99.90
2023-03-31T10:32:29.660Z,99.90
2023-03-31T10:35:01.219Z,99.90
2023-03-31T10:37:32.456Z,99.90
2023-03-31T10:40:08.423Z,99.90
2023-03-31T10:42:38.810Z,99.90
2023-03-31T10:45:37.189Z,99.90
2023-03-31T10:48:19.926Z,99.90
2023-03-31T10:50:51.514Z,99.90
2023-03-31T10:53:22.718Z,99.90
2023-03-31T10:56:04.013Z,99.90
2023-03-31T10:58:54.709Z,99.90
2023-03-31T11:01:41.170Z,99.90
2023-03-31T11:04:40.375Z,99.90
2023-03-31T11:07:19.274Z,99.90
2023-03-31T11:10:02.888Z,99.90
2023-03-31T11:12:40.821Z,99.90
2023-03-31T11:15:21.179Z,99.90
2023-03-31T11:18:16.436Z,99.90
2023-03-31T11:20:58.190Z,99.90
2023-03-31T11:23:48.334Z,99.90
2023-03-31T11:26:25.121Z,99.90
2023-03-31T11:29:18.910Z,99.90
2023-03-31T11:31:56.585Z,99.90
2023-03-31T11:34:48.126Z,99.90
2023-03-31T11:37:32.604Z,99.90
2023-03-31T11:40:21.473Z,99.90
2023-03-31T11:42:56.197Z,99.90
2023-03-31T11:45:32.647Z,99.90
2023-03-31T11:48:07.981Z,99.90
2023-03-31T11:50:42.101Z,99.90
2023-03-31T11:53:18.951Z,99.90
2023-03-31T11:55:51.181Z,99.90
2023-03-31T11:58:25.393Z,99.90
2023-03-31T12:01:03.423Z,99.90
2023-03-31T12:03:44.548Z,99.90
2023-03-31T12:06:20.015Z,99.90
2023-03-31T12:08:59.882Z,99.90
2023-03-31T12:11:35.618Z,99.90
2023-03-31T12:14:17.690Z,99.90
2023-03-31T12:16:51.372Z,99.90
2023-03-31T12:19:24.722Z,99.90
2023-03-31T12:21:57.794Z,99.90
2023-03-31T12:24:28.257Z,99.90
2023-03-31T12:27:10.160Z,99.90
2023-03-31T12:29:44.609Z,99.90
2023-03-31T12:32:19.934Z,99.90
2023-03-31T12:34:59.150Z,99.90
2023-03-31T12:38:02.711Z,99.90
2023-03-31T12:40:58.953Z,99.90
2023-03-31T12:44:01.672Z,99.90
2023-03-31T12:46:57.740Z,99.90
2023-03-31T12:49:42.115Z,99.90
2023-03-31T12:52:19.846Z,99.90
2023-03-31T12:55:32.596Z,99.90
2023-03-31T12:58:35.716Z,99.90
2023-03-31T13:01:07.702Z,99.90
2023-03-31T13:03:51.158Z,99.90
2023-03-31T13:06:52.490Z,99.90
2023-03-31T13:09:45.457Z,99.90
2023-03-31T13:12:24.404Z,99.90
2023-03-31T13:14:55.723Z,99.90
2023-03-31T13:17:36.467Z,99.90
2023-03-31T13:20:28.333Z,99.90
2023-03-31T13:23:06.676Z,99.90
2023-03-31T13:25:52.320Z,99.90
2023-03-31T13:28:42.819Z,99.90
2023-03-31T13:31:14.418Z,99.90
2023-03-31T13:33:58.261Z,99.90
2023-03-31T13:36:59.617Z,99.90
2023-03-31T13:39:56.918Z,99.90
2023-03-31T13:43:06.963Z,99.90
2023-03-31T13:45:53.171Z,99.90
2023-03-31T13:48:39.164Z,99.90
2023-03-31T13:51:41.346Z,99.90
2023-03-31T13:55:02.328Z,99.90
2023-03-31T13:58:29.438Z,99.90
2023-03-31T14:01:32.666Z,99.90
2023-03-31T14:04:25.007Z,99.90
2023-03-31T14:06:59.544Z,99.90
2023-03-31T14:09:34.363Z,99.90
2023-03-31T14:12:23.343Z,99.90
2023-03-31T14:14:56.656Z,99.90
2023-03-31T14:17:30.900Z,99.90
2023-03-31T14:20:22.016Z,99.90
2023-03-31T14:22:59.707Z,99.90
2023-03-31T14:25:41.601Z,99.90
2023-03-31T14:28:42.290Z,99.90
2023-03-31T14:31:22.206Z,99.90
2023-03-31T14:34:14.232Z,99.70
2023-03-31T14:36:51.619Z,98.20
2023-03-31T14:39:27.025Z,98.20
2023-03-31T14:42:02.121Z,98.10
2023-03-31T14:44:36.102Z,97.70
2023-03-31T14:47:07.964Z,97.70
2023-03-31T14:49:41.376Z,96.90
2023-03-31T14:52:18.211Z,98.00
2023-03-31T14:54:49.598Z,96.70
2023-03-31T14:57:22.794Z,96.70
2023-03-31T14:59:56.096Z,97.00
2023-03-31T15:02:34.048Z,95.30
2023-03-31T15:05:08.166Z,96.20
2023-03-31T15:07:38.737Z,96.50
2023-03-31T15:10:10.488Z,96.40
2023-03-31T15:12:40.687Z,96.10
2023-03-31T15:15:16.445Z,95.80
2023-03-31T15:17:49.801Z,95.80
2023-03-31T15:20:38.637Z,93.90
2023-03-31T15:23:25.206Z,93.60
2023-03-31T15:26:07.818Z,94.20
2023-03-31T15:28:47.851Z,95.30
2023-03-31T15:31:19.924Z,96.40
2023-03-31T15:33:50.497Z,96.50
2023-03-31T15:36:23.257Z,95.80
2023-03-31T15:38:59.636Z,95.80
2023-03-31T15:41:33.463Z,95.40
2023-03-31T15:44:09.245Z,95.40
2023-03-31T15:47:02.879Z,94.70
2023-03-31T15:49:33.690Z,94.80
2023-03-31T15:52:03.992Z,95.70
2023-03-31T15:54:40.358Z,94.30
2023-03-31T15:57:12.579Z,93.00
2023-03-31T15:59:55.759Z,93.30
2023-03-31T16:02:30.942Z,92.90
2023-03-31T16:05:02.997Z,92.50
2023-03-31T16:07:37.414Z,93.50
2023-03-31T16:10:11.586Z,91.90
2023-03-31T16:12:44.613Z,91.90
2023-03-31T16:15:18.514Z,92.40
2023-03-31T16:17:55.066Z,92.50
2023-03-31T16:20:28.650Z,92.20
2023-03-31T16:23:01.139Z,92.60
2023-03-31T16:25:33.856Z,92.50
2023-03-31T16:28:05.980Z,92.20
2023-03-31T16:30:40.959Z,93.50
2023-03-31T16:33:14.764Z,93.30
2023-03-31T16:35:49.496Z,92.80
2023-03-31T16:38:20.353Z,93.40
2023-03-31T16:40:52.348Z,92.80
2023-03-31T16:43:23.938Z,93.10
2023-03-31T16:45:55.465Z,91.90
2023-03-31T16:48:29.164Z,91.40
2023-03-31T16:51:00.991Z,89.60
2023-03-31T16:53:32.330Z,87.80
2023-03-31T16:56:02.644Z,89.20
2023-03-31T16:58:33.114Z,89.00
2023-03-31T17:01:03.917Z,87.80
2023-03-31T17:03:37.562Z,89.10
2023-03-31T17:06:10.675Z,88.30
2023-03-31T17:08:41.690Z,88.70
2023-03-31T17:11:14.916Z,87.10
2023-03-31T17:13:45.921Z,91.70
2023-03-31T17:16:22.030Z,94.10
2023-03-31T17:18:58.815Z,95.10
2023-03-31T17:21:30.236Z,95.50
2023-03-31T17:24:02.672Z,95.70
2023-03-31T17:26:33.559Z,95.90
2023-03-31T17:29:04.125Z,96.70
2023-03-31T17:31:34.402Z,96.60
2023-03-31T17:34:06.399Z,96.60
2023-03-31T17:36:36.592Z,96.80
2023-03-31T17:39:08.063Z,96.40
2023-03-31T17:41:38.457Z,97.70
2023-03-31T17:44:09.426Z,97.50
2023-03-31T17:46:39.581Z,97.50
2023-03-31T17:49:11.734Z,97.30
2023-03-31T17:51:44.724Z,97.70
2023-03-31T17:54:14.970Z,97.90
2023-03-31T17:56:45.946Z,97.30
2023-03-31T17:59:16.255Z,97.50
2023-03-31T18:01:47.540Z,97.00
2023-03-31T18:04:19.489Z,96.60
2023-03-31T18:06:50.969Z,96.00
2023-03-31T18:09:21.901Z,96.60
2023-03-31T18:11:52.229Z,95.30
2023-03-31T18:14:23.223Z,93.20
2023-03-31T18:16:53.631Z,92.20
2023-03-31T18:19:25.505Z,92.10
2023-03-31T18:21:55.835Z,92.50
2023-03-31T18:24:26.390Z,93.30
2023-03-31T18:26:57.493Z,93.60
2023-03-31T18:29:27.869Z,93.30
2023-03-31T18:31:58.477Z,94.80
2023-03-31T18:34:30.838Z,94.90
2023-03-31T18:37:00.992Z,96.50
2023-03-31T18:39:31.127Z,97.40
2023-03-31T18:42:01.631Z,97.70
2023-03-31T18:44:32.104Z,98.90
2023-03-31T18:47:02.374Z,99.70
2023-03-31T18:49:34.506Z,99.90
2023-03-31T18:52:05.055Z,99.90
2023-03-31T18:54:35.692Z,99.90
2023-03-31T18:57:06.922Z,99.90
2023-03-31T18:59:37.212Z,99.90
2023-03-31T19:02:07.720Z,99.90
2023-03-31T19:04:39.784Z,99.90
2023-03-31T19:07:09.968Z,99.90
2023-03-31T19:09:40.348Z,99.90
2023-03-31T19:12:11.659Z,99.90
2023-03-31T19:14:42.114Z,99.90
2023-03-31T19:17:12.289Z,99.90
2023-03-31T19:19:44.112Z,99.90
2023-03-31T19:22:14.232Z,99.90
2023-03-31T19:24:45.657Z,99.90
2023-03-31T19:27:16.162Z,99.90
2023-03-31T19:29:46.832Z,99.90
2023-03-31T19:32:17.541Z,99.90
2023-03-31T19:34:51.363Z,99.90
2023-03-31T19:37:22.189Z,99.90
2023-03-31T19:39:52.765Z,99.90
2023-03-31T19:42:22.917Z,99.90
2023-03-31T19:44:53.268Z,99.90
2023-03-31T19:47:23.493Z,99.90
2023-03-31T19:49:55.506Z,99.90
2023-03-31T19:52:25.853Z,99.90
2023-03-31T19:54:56.075Z,99.90
2023-03-31T19:57:26.436Z,99.90
2023-03-31T19:59:56.714Z,99.90
2023-03-31T20:02:27.199Z,99.90
2023-03-31T20:04:59.275Z,99.90
2023-03-31T20:07:29.949Z,99.90
2023-03-31T20:10:00.145Z,99.90
2023-03-31T20:12:30.731Z,99.90
2023-03-31T20:15:01.096Z,99.90
2023-03-31T20:17:31.554Z,99.90
2023-03-31T20:20:03.928Z,99.90
2023-03-31T20:22:34.052Z,99.90
2023-03-31T20:25:04.316Z,99.90
2023-03-31T20:27:34.467Z,99.90
2023-03-31T20:30:05.216Z,99.90
2023-03-31T20:32:35.452Z,99.90
2023-03-31T20:35:09.133Z,99.90
2023-03-31T20:37:39.633Z,99.90
2023-03-31T20:40:11.355Z,99.90
2023-03-31T20:42:41.601Z,99.90
2023-03-31T20:45:12.350Z,99.90
2023-03-31T20:47:42.845Z,99.90
2023-03-31T20:50:15.087Z,99.90
2023-03-31T20:52:46.549Z,99.90
2023-03-31T20:55:17.554Z,99.90
2023-03-31T20:57:47.813Z,99.90
2023-03-31T21:00:19.171Z,99.90
2023-03-31T21:02:49.397Z,99.90
2023-03-31T21:05:22.078Z,99.90
2023-03-31T21:07:52.304Z,99.90
2023-03-31T21:10:22.529Z,99.90
2023-03-31T21:12:53.334Z,99.90
2023-03-31T21:15:23.839Z,99.90
2023-03-31T21:17:54.514Z,99.90
2023-03-31T21:20:26.473Z,99.90
2023-03-31T21:22:57.810Z,99.90
2023-03-31T21:25:28.590Z,99.90
2023-03-31T21:27:58.775Z,99.90
2023-03-31T21:30:29.038Z,99.90
2023-03-31T21:32:59.262Z,99.90
2023-03-31T21:35:32.409Z,99.90
2023-03-31T21:38:03.542Z,99.90
2023-03-31T21:40:33.911Z,99.90
2023-03-31T21:43:04.182Z,99.90
2023-03-31T21:45:34.435Z,99.90
2023-03-31T21:48:04.637Z,99.90
2023-03-31T21:50:37.076Z,99.90
2023-03-31T21:53:09.018Z,99.90
2023-03-31T21:55:45.015Z,99.90
2023-03-31T21:58:15.203Z,99.90
2023-03-31T22:00:45.443Z,99.90
2023-03-31T22:03:26.607Z,99.90
2023-03-31T22:06:01.947Z,99.90
2023-03-31T22:08:33.169Z,99.90
2023-03-31T22:11:03.720Z,99.90
2023-03-31T22:13:33.916Z,99.90
2023-03-31T22:16:04.908Z,99.90
2023-03-31T22:18:35.136Z,99.90
2023-03-31T22:21:15.255Z,99.90
2023-03-31T22:23:45.418Z,99.90
2023-03-31T22:26:15.918Z,99.90
2023-03-31T22:28:46.083Z,99.90
2023-03-31T22:31:16.471Z,99.90
2023-03-31T22:33:47.880Z,99.90
2023-03-31T22:36:19.769Z,99.90
2023-03-31T22:38:49.962Z,99.90
2023-03-31T22:41:20.282Z,99.90
2023-03-31T22:43:50.520Z,99.90
2023-03-31T22:46:20.845Z,99.90
2023-03-31T22:48:51.628Z,99.90
2023-03-31T22:51:23.616Z,99.90
2023-03-31T22:53:54.154Z,99.90
2023-03-31T22:56:25.199Z,99.90
2023-03-31T22:58:58.194Z,99.90
2023-03-31T23:01:28.476Z,99.90
2023-03-31T23:03:58.701Z,99.90
2023-03-31T23:06:32.322Z,99.90
2023-03-31T23:09:03.298Z,99.90
2023-03-31T23:11:33.569Z,99.90
2023-03-31T23:14:04.976Z,99.90
2023-03-31T23:16:35.496Z,99.90
2023-03-31T23:19:05.908Z,99.90
2023-03-31T23:21:38.269Z,99.90
2023-03-31T23:24:09.013Z,99.90
2023-03-31T23:26:53.449Z,99.90
2023-03-31T23:29:23.885Z,99.90
2023-03-31T23:31:54.191Z,99.90
2023-03-31T23:34:24.463Z,99.90
2023-03-31T23:36:56.257Z,99.90
2023-03-31T23:39:26.480Z,99.90
2023-03-31T23:41:56.802Z,99.90
2023-03-31T23:44:26.966Z,99.90
2023-03-31T23:46:57.135Z,99.90
2023-03-31T23:49:28.018Z,99.90
2023-03-31T23:52:03.014Z,99.90
2023-03-31T23:54:33.400Z,99.90
2023-03-31T23:57:03.701Z,99.90
2023-03-31T23:59:33.868Z,99.90
